Time;durP1;ratioP1;P1;durP2;ratioP2;P2;SDS_P1;SDS_P2;PMS_P1;PMS_P2;Temp;Humidity;BMP_temperature;BMP_pressure;BME280_temperature;BME280_humidity;BME280_pressure;Samples;Min_cycle;Max_cycle;Signal;HPM_P1;HPM_P2
2021/12/11 00:00:26;;;;;;;8.73;4.40;;;;;;;3.57;83.92;93786.84;5030802;28;20216;-74
2021/12/11 00:03:01;;;;;;;11.07;4.80;;;;;;;3.41;84.56;93782.97;5030641;28;20262;-74
2021/12/11 00:05:30;;;;;;;7.35;3.58;;;;;;;3.40;84.51;93786.72;5030375;28;20212;-74
2021/12/11 00:07:58;;;;;;;12.25;5.07;;;;;;;3.23;85.29;93786.59;5030336;28;20201;-74
2021/12/11 00:10:30;;;;;;;5.82;3.60;;;;;;;3.31;84.81;93777.03;5030668;28;20232;-74
2021/12/11 00:13:01;;;;;;;4.20;2.53;;;;;;;3.42;83.89;93795.22;5029997;28;20224;-74
2021/12/11 00:15:32;;;;;;;10.32;3.80;;;;;;;3.37;83.98;93802.59;5030245;28;20779;-74
2021/12/11 00:18:03;;;;;;;11.77;4.68;;;;;;;3.20;84.59;93817.41;5029928;28;20708;-74
2021/12/11 00:20:34;;;;;;;11.00;4.90;;;;;;;3.06;85.22;93838.03;5030481;28;20271;-75
2021/12/11 00:23:02;;;;;;;12.02;5.32;;;;;;;3.03;85.56;93841.31;5031507;28;20204;-74
2021/12/11 00:25:31;;;;;;;3.58;2.58;;;;;;;3.07;85.05;93830.81;5032938;28;20227;-74
2021/12/11 00:28:05;;;;;;;3.85;2.47;;;;;;;3.33;84.09;93823.81;5019749;28;20267;-75
2021/12/11 00:30:36;;;;;;;5.72;3.10;;;;;;;3.39;83.96;93817.28;5011251;28;20259;-74
2021/12/11 00:33:07;;;;;;;7.85;3.70;;;;;;;3.36;84.09;93811.72;5009880;28;20201;-74
2021/12/11 00:35:35;;;;;;;8.15;3.67;;;;;;;3.33;84.56;93823.81;5010504;28;20201;-74
2021/12/11 00:38:05;;;;;;;10.65;4.55;;;;;;;3.32;84.48;93814.19;5024646;28;20255;-74
2021/12/11 00:40:36;;;;;;;6.13;2.30;;;;;;;3.30;84.41;93818.25;5016535;28;20634;-74
2021/12/11 00:43:06;;;;;;;17.60;7.25;;;;;;;3.22;84.72;93817.13;5014310;28;20200;-74
2021/12/11 00:45:35;;;;;;;14.45;5.85;;;;;;;3.28;84.64;93815.88;5033653;28;20211;-74
2021/12/11 00:48:09;;;;;;;11.38;5.13;;;;;;;3.18;85.29;93806.22;5032849;28;20231;-74
2021/12/11 00:50:41;;;;;;;8.95;4.57;;;;;;;3.25;85.45;93795.09;5020325;28;20630;-73
2021/12/11 00:53:12;;;;;;;6.40;3.47;;;;;;;2.87;85.20;93788.47;5033728;28;20196;-73
2021/12/11 00:55:43;;;;;;;9.82;4.65;;;;;;;2.79;85.81;93804.09;5033790;28;20200;-73
2021/12/11 00:58:13;;;;;;;7.93;3.80;;;;;;;2.92;86.12;93791.00;5033759;28;20193;-74
2021/12/11 01:00:45;;;;;;;9.75;4.03;;;;;;;3.06;84.88;93799.81;5032570;28;20200;-73
2021/12/11 01:03:16;;;;;;;10.40;4.72;;;;;;;3.08;85.49;93805.66;5032914;28;20607;-74
2021/12/11 01:05:48;;;;;;;9.00;4.55;;;;;;;2.93;85.52;93797.94;5030102;28;20205;-74
2021/12/11 01:08:27;;;;;;;6.03;2.90;;;;;;;2.96;85.83;93792.00;5024136;28;20192;-73
2021/12/11 01:11:03;;;;;;;8.88;4.43;;;;;;;3.01;85.42;93794.56;5033311;28;20235;-74
2021/12/11 01:13:33;;;;;;;6.18;3.47;;;;;;;2.92;85.50;93788.34;5032393;28;20253;-74
2021/12/11 01:16:06;;;;;;;3.70;2.70;;;;;;;3.05;85.00;93788.31;5012893;28;20672;-74
2021/12/11 01:18:36;;;;;;;7.50;4.15;;;;;;;3.04;85.37;93791.28;5012971;28;20204;-74
2021/12/11 01:21:24;;;;;;;6.45;3.10;;;;;;;2.99;85.58;93780.72;5021445;28;20725;-74
2021/12/11 01:24:08;;;;;;;7.63;3.35;;;;;;;3.08;85.06;93790.38;5032874;28;20536;-74
2021/12/11 01:26:40;;;;;;;9.38;3.13;;;;;;;3.08;87.10;93789.59;5032918;28;20200;-74
2021/12/11 01:29:09;;;;;;;6.55;3.60;;;;;;;3.05;85.67;93800.91;5032262;28;20700;-74
2021/12/11 01:31:37;;;;;;;10.10;3.47;;;;;;;2.78;85.76;93791.81;5032680;28;20290;-74
2021/12/11 01:34:05;;;;;;;7.07;3.88;;;;;;;2.76;85.82;93777.97;5030175;28;20208;-74
2021/12/11 01:36:32;;;;;;;7.70;3.08;;;;;;;2.75;85.96;93780.94;5028329;28;20258;-74
2021/12/11 01:39:08;;;;;;;8.60;3.75;;;;;;;2.72;86.38;93776.19;5023680;28;20891;-74
2021/12/11 01:41:38;;;;;;;6.97;3.45;;;;;;;2.79;85.85;93777.38;5017603;28;20254;-74
2021/12/11 01:44:10;;;;;;;10.27;4.00;;;;;;;2.78;86.16;93767.75;5020734;28;20255;-74
2021/12/11 01:46:38;;;;;;;5.18;3.10;;;;;;;2.70;86.62;93765.81;5032266;28;20254;-74
2021/12/11 01:49:09;;;;;;;4.50;2.78;;;;;;;2.62;86.78;93766.50;5032074;28;20219;-74
2021/12/11 01:51:39;;;;;;;7.97;3.60;;;;;;;2.66;86.71;93767.50;5006524;28;20224;-74
2021/12/11 01:54:13;;;;;;;9.77;3.63;;;;;;;2.64;87.24;93761.63;5031325;28;20208;-74
2021/12/11 01:56:44;;;;;;;6.72;3.72;;;;;;;2.74;87.53;93769.44;5032483;28;20200;-74
2021/12/11 01:59:15;;;;;;;6.68;3.97;;;;;;;2.73;87.55;93767.84;5032580;28;20193;-74
2021/12/11 02:01:46;;;;;;;6.15;2.35;;;;;;;2.74;86.92;93774.78;5032676;28;20246;-74
2021/12/11 02:04:16;;;;;;;6.07;3.35;;;;;;;2.73;86.42;93783.91;5032255;28;20258;-73
2021/12/11 02:06:47;;;;;;;5.13;2.97;;;;;;;2.78;85.31;93775.00;5032854;28;20211;-73
2021/12/11 02:09:19;;;;;;;5.30;3.47;;;;;;;2.73;85.37;93762.50;5032454;28;20201;-73
2021/12/11 02:11:50;;;;;;;9.20;4.82;;;;;;;2.80;85.62;93760.25;5032334;28;20231;-73
2021/12/11 02:14:25;;;;;;;8.50;3.95;;;;;;;2.80;86.49;93762.91;5024609;28;20629;-73
2021/12/11 02:16:54;;;;;;;10.63;4.70;;;;;;;2.73;86.49;93751.81;5012119;28;20201;-73
2021/12/11 02:19:32;;;;;;;11.60;4.97;;;;;;;2.76;86.45;93761.13;5011763;28;20263;-73
2021/12/11 02:22:10;;;;;;;5.95;3.05;;;;;;;2.87;85.33;93751.78;5025657;28;20546;-73
2021/12/11 02:24:43;;;;;;;4.00;2.70;;;;;;;3.02;84.79;93758.69;5023133;28;20275;-73
2021/12/11 02:27:18;;;;;;;3.67;1.83;;;;;;;3.18;83.41;93759.94;5031761;28;20204;-73
2021/12/11 02:29:51;;;;;;;5.30;2.70;;;;;;;3.13;82.85;93768.88;5018016;28;20201;-73
2021/12/11 02:32:28;;;;;;;4.95;2.95;;;;;;;3.03;83.80;93760.28;5031760;28;20228;-74
2021/12/11 02:34:58;;;;;;;6.03;3.65;;;;;;;2.80;84.99;93757.56;5024542;28;20265;-74
2021/12/11 02:37:36;;;;;;;6.68;3.00;;;;;;;2.81;85.50;93764.50;5031614;28;20200;-73
2021/12/11 02:40:14;;;;;;;6.18;3.30;;;;;;;2.88;84.83;93765.94;5021841;28;20233;-73
2021/12/11 02:42:48;;;;;;;6.30;3.15;;;;;;;2.85;85.52;93760.13;5024918;28;20260;-73
2021/12/11 02:45:20;;;;;;;3.28;2.17;;;;;;;2.85;84.77;93752.13;5031370;28;20250;-73
2021/12/11 02:47:50;;;;;;;4.60;2.58;;;;;;;2.77;85.01;93752.81;5017828;28;20270;-74
2021/12/11 02:50:22;;;;;;;6.38;3.47;;;;;;;2.80;85.03;93746.88;5031371;28;20197;-74
2021/12/11 02:52:54;;;;;;;3.63;2.15;;;;;;;2.94;85.44;93735.34;5031165;28;20243;-74
2021/12/11 02:55:28;;;;;;;1.85;1.17;;;;;;;2.93;84.79;93733.75;5030600;28;20212;-74
2021/12/11 02:57:58;;;;;;;4.78;2.00;;;;;;;3.04;84.61;93740.47;5030958;28;20250;-73
2021/12/11 03:00:30;;;;;;;4.15;2.40;;;;;;;3.18;84.08;93725.16;5031420;28;20202;-74
2021/12/11 03:03:03;;;;;;;6.18;2.55;;;;;;;3.30;83.60;93728.06;5005022;28;20655;-74
2021/12/11 03:05:39;;;;;;;6.15;2.33;;;;;;;3.37;83.27;93731.13;5030972;28;20682;-75
2021/12/11 03:08:11;;;;;;;3.03;1.67;;;;;;;3.50;82.58;93732.94;5030780;28;20754;-75
2021/12/11 03:10:41;;;;;;;2.63;1.63;;;;;;;3.57;82.41;93738.66;5026909;28;20235;-75
2021/12/11 03:13:09;;;;;;;1.60;0.95;;;;;;;3.52;82.93;93725.41;5010671;28;20209;-75
2021/12/11 03:15:36;;;;;;;4.22;2.20;;;;;;;3.52;82.92;93724.63;5015576;28;20225;-75
2021/12/11 03:18:06;;;;;;;2.53;1.63;;;;;;;3.54;82.83;93723.22;5030866;28;20262;-75
2021/12/11 03:20:36;;;;;;;2.65;1.92;;;;;;;3.55;82.92;93727.44;5030996;28;20253;-75
2021/12/11 03:23:04;;;;;;;1.95;1.30;;;;;;;3.60;82.87;93723.88;5030057;28;20197;-75
2021/12/11 03:25:33;;;;;;;2.35;1.05;;;;;;;3.57;82.56;93711.88;5023786;28;20216;-74
2021/12/11 03:28:00;;;;;;;2.05;1.20;;;;;;;3.63;82.09;93703.72;5023356;28;20208;-73
2021/12/11 03:30:31;;;;;;;3.03;1.90;;;;;;;3.64;82.35;93702.63;5017660;28;20208;-73
2021/12/11 03:33:03;;;;;;;2.13;1.63;;;;;;;3.57;82.25;93698.50;5017474;28;20212;-75
2021/12/11 03:35:31;;;;;;;3.47;1.67;;;;;;;3.58;82.56;93691.25;5016263;28;20232;-77
2021/12/11 03:37:59;;;;;;;2.78;1.20;;;;;;;3.56;82.64;93680.84;5009888;28;20274;-75
2021/12/11 03:40:27;;;;;;;1.77;1.35;;;;;;;3.48;83.19;93686.94;5010738;28;20232;-75
2021/12/11 03:43:00;;;;;;;2.90;1.52;;;;;;;3.50;83.21;93689.31;5010667;28;20209;-76
2021/12/11 03:45:34;;;;;;;1.70;1.00;;;;;;;3.59;83.10;93692.84;5020812;28;20193;-76
2021/12/11 03:48:09;;;;;;;3.92;1.70;;;;;;;3.64;83.17;93687.34;5029843;28;20208;-75
2021/12/11 03:50:38;;;;;;;2.20;1.27;;;;;;;3.65;82.71;93685.47;5030756;28;20256;-76
2021/12/11 03:53:05;;;;;;;3.50;1.55;;;;;;;3.66;82.61;93673.66;5016753;28;20705;-73
2021/12/11 03:55:38;;;;;;;3.03;1.50;;;;;;;3.83;82.36;93693.25;5017360;28;20667;-75
2021/12/11 03:58:08;;;;;;;1.92;1.33;;;;;;;3.94;82.40;93683.09;4996434;28;20722;-74
2021/12/11 04:00:39;;;;;;;1.05;0.90;;;;;;;3.99;81.74;93684.81;5010505;28;20251;-75
2021/12/11 04:03:08;;;;;;;1.15;1.05;;;;;;;4.06;81.80;93685.19;5010277;28;20201;-75
2021/12/11 04:05:39;;;;;;;2.17;1.55;;;;;;;4.10;81.77;93692.28;5010292;28;20227;-75
2021/12/11 04:08:09;;;;;;;2.20;1.00;;;;;;;4.20;81.70;93702.72;5019741;28;20205;-79
2021/12/11 04:10:37;;;;;;;2.13;1.23;;;;;;;4.29;81.36;93698.19;5030604;28;20193;-74
2021/12/11 04:13:09;;;;;;;2.08;0.80;;;;;;;4.32;81.16;93695.97;5030329;28;20633;-77
2021/12/11 04:15:38;;;;;;;2.25;1.15;;;;;;;4.38;80.67;93700.88;5030566;28;20675;-75
2021/12/11 04:18:07;;;;;;;1.58;0.95;;;;;;;4.37;80.97;93702.00;5031286;28;20200;-74
2021/12/11 04:20:36;;;;;;;1.75;1.42;;;;;;;4.39;80.83;93699.00;5034405;28;20208;-74
2021/12/11 04:23:04;;;;;;;2.10;1.20;;;;;;;4.33;81.21;93684.16;5034004;28;20683;-75
2021/12/11 04:25:32;;;;;;;3.83;1.50;;;;;;;4.29;81.77;93698.19;5034166;28;20212;-74
2021/12/11 04:28:01;;;;;;;5.43;1.20;;;;;;;4.27;81.82;93700.38;5033313;28;20250;-76
2021/12/11 04:30:30;;;;;;;2.08;1.20;;;;;;;4.24;82.37;93697.53;5033836;28;20196;-74
2021/12/11 04:32:59;;;;;;;1.40;1.00;;;;;;;4.19;82.73;93695.78;5034067;28;20323;-76
2021/12/11 04:35:29;;;;;;;3.50;1.50;;;;;;;4.18;83.15;93680.81;5020863;28;20207;-76
2021/12/11 04:37:57;;;;;;;1.02;0.90;;;;;;;4.15;84.15;93673.38;5033513;28;20210;-75
2021/12/11 04:40:29;;;;;;;1.45;1.10;;;;;;;4.04;84.97;93682.81;5021130;28;20240;-73
2021/12/11 04:43:02;;;;;;;2.08;0.88;;;;;;;4.05;85.18;93684.41;5029899;28;20192;-74
2021/12/11 04:45:36;;;;;;;1.75;1.42;;;;;;;3.99;86.20;93680.25;5033973;28;20192;-74
2021/12/11 04:48:11;;;;;;;3.38;1.30;;;;;;;3.94;86.27;93677.75;5033786;28;20224;-75
2021/12/11 04:50:46;;;;;;;3.15;1.42;;;;;;;3.94;86.39;93688.44;5033054;28;20624;-73
2021/12/11 04:53:31;;;;;;;2.08;1.08;;;;;;;3.95;86.47;93694.59;5007775;28;20223;-72
2021/12/11 04:56:19;;;;;;;1.55;1.13;;;;;;;3.87;87.03;93693.44;5019864;28;20298;-72
2021/12/11 04:59:00;;;;;;;1.58;1.13;;;;;;;3.83;87.40;93697.84;5032661;28;20228;-72
2021/12/11 05:01:44;;;;;;;2.78;1.13;;;;;;;3.83;88.24;93692.47;5009497;28;20279;-72
2021/12/11 05:04:33;;;;;;;4.63;1.30;;;;;;;3.80;87.64;93687.75;5019730;28;20726;-72
2021/12/11 05:07:05;;;;;;;1.80;1.10;;;;;;;3.77;87.91;93688.38;5033450;28;20315;-72
2021/12/11 05:09:39;;;;;;;3.95;1.38;;;;;;;3.80;87.34;93687.75;5033045;28;20288;-74
2021/12/11 05:12:16;;;;;;;2.10;1.20;;;;;;;3.78;87.32;93685.38;5027295;28;20312;-74
2021/12/11 05:14:44;;;;;;;1.92;1.20;;;;;;;3.79;87.85;93670.91;5023063;28;20510;-74
2021/12/11 05:17:13;;;;;;;3.67;1.65;;;;;;;3.80;86.96;93677.03;5020119;28;20298;-74
2021/12/11 05:19:42;;;;;;;4.43;2.22;;;;;;;3.75;88.20;93677.16;5032410;28;20604;-73
2021/12/11 05:22:11;;;;;;;3.45;1.75;;;;;;;3.70;87.92;93682.66;5013477;28;20201;-74
2021/12/11 05:24:41;;;;;;;3.40;1.65;;;;;;;3.71;87.66;93674.31;5012529;28;20244;-73
2021/12/11 05:27:09;;;;;;;2.50;1.38;;;;;;;3.69;87.71;93681.84;5016769;28;20651;-72
2021/12/11 05:29:37;;;;;;;1.73;1.30;;;;;;;3.70;87.30;93674.59;5020703;28;20189;-73
2021/12/11 05:32:07;;;;;;;2.08;1.55;;;;;;;3.77;87.38;93675.75;5013670;28;20704;-74
2021/12/11 05:34:36;;;;;;;3.45;2.45;;;;;;;3.76;86.89;93666.16;5011595;28;20290;-74
2021/12/11 05:37:03;;;;;;;2.08;1.30;;;;;;;3.78;87.73;93668.53;5011898;28;20205;-74
2021/12/11 05:39:31;;;;;;;3.15;1.92;;;;;;;3.75;87.29;93677.16;5021039;28;20303;-73
2021/12/11 05:41:58;;;;;;;3.92;1.70;;;;;;;3.80;86.94;93682.41;5014441;28;20197;-74
2021/12/11 05:44:26;;;;;;;1.90;1.52;;;;;;;3.76;87.38;93681.44;5009467;28;20201;-74
2021/12/11 05:46:54;;;;;;;3.38;1.90;;;;;;;3.78;87.33;93687.28;5012824;28;20259;-75
2021/12/11 05:49:22;;;;;;;3.42;1.90;;;;;;;3.78;87.76;93673.88;5014747;28;20271;-73
2021/12/11 05:51:52;;;;;;;4.43;2.30;;;;;;;3.87;87.43;93672.00;5015597;28;20323;-72
2021/12/11 05:54:24;;;;;;;3.80;2.78;;;;;;;3.89;87.60;93670.63;5013211;28;20267;-75
2021/12/11 05:56:54;;;;;;;2.33;1.73;;;;;;;3.89;87.67;93683.22;5008845;28;20752;-73
2021/12/11 05:59:22;;;;;;;3.17;2.25;;;;;;;3.90;87.60;93692.84;5010327;28;20255;-73
2021/12/11 06:01:52;;;;;;;5.22;3.03;;;;;;;3.94;87.80;93699.16;5010876;28;20251;-74
2021/12/11 06:04:24;;;;;;;2.67;2.45;;;;;;;4.04;88.45;93698.88;5011130;28;20584;-73
2021/12/11 06:06:53;;;;;;;7.88;4.75;;;;;;;4.10;88.59;93694.19;5009982;28;20268;-73
2021/12/11 06:09:22;;;;;;;5.43;3.42;;;;;;;4.13;87.23;93678.25;5012216;28;20205;-75
2021/12/11 06:11:52;;;;;;;5.53;3.53;;;;;;;4.01;87.59;93693.34;5012557;28;20329;-74
2021/12/11 06:14:21;;;;;;;9.35;4.35;;;;;;;4.04;87.97;93692.72;5010021;28;20209;-74
2021/12/11 06:16:52;;;;;;;7.75;4.38;;;;;;;4.03;87.75;93691.94;5008973;28;20205;-73
2021/12/11 06:19:21;;;;;;;8.30;4.35;;;;;;;4.12;87.62;93700.78;5011720;28;20200;-74
2021/12/11 06:21:49;;;;;;;9.25;3.60;;;;;;;4.21;87.42;93704.31;5012083;28;20592;-74
2021/12/11 06:24:19;;;;;;;7.18;4.10;;;;;;;4.27;87.33;93697.69;5010850;28;20201;-74
2021/12/11 06:26:47;;;;;;;7.18;3.97;;;;;;;4.35;87.23;93692.69;5010749;28;20208;-76
2021/12/11 06:29:14;;;;;;;8.73;4.13;;;;;;;4.37;86.35;93706.56;5010086;28;20623;-76
2021/12/11 06:31:43;;;;;;;7.90;4.38;;;;;;;4.51;86.17;93699.97;5010353;28;20282;-75
2021/12/11 06:34:11;;;;;;;8.65;4.00;;;;;;;4.35;86.14;93703.41;5011334;28;20205;-74
2021/12/11 06:36:39;;;;;;;11.73;4.95;;;;;;;4.21;86.30;93698.97;5011456;28;20209;-75
2021/12/11 06:39:10;;;;;;;5.85;3.63;;;;;;;4.21;87.01;93698.16;5011497;28;20241;-74
2021/12/11 06:41:42;;;;;;;6.65;4.22;;;;;;;4.32;87.12;93704.03;5011110;28;20209;-75
2021/12/11 06:44:10;;;;;;;8.23;4.85;;;;;;;4.43;87.20;93705.31;5011642;28;20201;-78
2021/12/11 06:46:39;;;;;;;11.52;6.00;;;;;;;4.36;86.38;93713.81;5011706;28;20204;-78
2021/12/11 06:49:09;;;;;;;8.98;5.18;;;;;;;4.41;85.98;93691.44;5011268;28;20300;-74
2021/12/11 06:51:36;;;;;;;8.32;5.18;;;;;;;4.39;86.06;93688.25;5010876;28;20220;-77
2021/12/11 06:54:07;;;;;;;10.48;6.18;;;;;;;4.70;86.30;93696.22;5010933;28;20671;-81
2021/12/11 06:56:35;;;;;;;7.80;4.75;;;;;;;4.76;85.78;93690.41;5023459;28;20251;-78
2021/12/11 06:59:04;;;;;;;10.20;6.47;;;;;;;5.00;85.73;93693.41;5025508;28;20216;-75
2021/12/11 07:01:31;;;;;;;8.95;5.28;;;;;;;5.22;85.15;93697.03;5030916;28;20200;-77
2021/12/11 07:04:00;;;;;;;9.57;5.00;;;;;;;5.30;83.82;93688.19;5030950;28;20254;-76
2021/12/11 07:06:29;;;;;;;24.80;11.20;;;;;;;5.39;84.34;93686.28;5031174;28;20328;-75
2021/12/11 07:08:56;;;;;;;10.30;6.57;;;;;;;5.48;83.27;93681.69;5017909;28;20209;-76
2021/12/11 07:11:24;;;;;;;7.63;4.68;;;;;;;5.43;83.02;93679.19;5013677;28;20240;-75
2021/12/11 07:13:51;;;;;;;11.63;6.93;;;;;;;5.27;83.60;93675.41;5010866;28;20240;-76
2021/12/11 07:16:20;;;;;;;27.25;11.35;;;;;;;5.08;84.78;93680.31;5011732;28;20213;-74
2021/12/11 07:18:48;;;;;;;14.48;7.70;;;;;;;5.04;84.98;93671.31;5010619;28;20288;-76
2021/12/11 07:21:14;;;;;;;12.43;6.63;;;;;;;5.30;84.39;93669.41;5008072;28;20271;-75
2021/12/11 07:23:47;;;;;;;12.85;6.22;;;;;;;5.29;84.44;93663.25;5009493;28;20255;-77
2021/12/11 07:26:18;;;;;;;11.18;6.25;;;;;;;5.53;83.44;93656.56;5009269;28;20203;-77
2021/12/11 07:28:49;;;;;;;13.02;5.25;;;;;;;5.51;83.07;93667.63;5007951;28;20247;-73
2021/12/11 07:31:17;;;;;;;9.73;5.03;;;;;;;5.64;82.73;93663.97;5008685;28;20196;-75
2021/12/11 07:33:46;;;;;;;10.93;5.10;;;;;;;5.80;82.21;93663.44;5008853;28;20232;-78
2021/12/11 07:36:13;;;;;;;10.00;4.82;;;;;;;5.54;80.95;93664.31;5007834;28;20647;-75
2021/12/11 07:38:41;;;;;;;9.10;5.20;;;;;;;5.54;82.40;93658.16;5009387;28;20209;-76
2021/12/11 07:41:11;;;;;;;13.85;7.10;;;;;;;6.00;82.07;93660.09;5008399;28;20251;-74
2021/12/11 07:43:40;;;;;;;10.40;6.05;;;;;;;6.22;80.48;93650.97;5008306;28;20554;-78
2021/12/11 07:46:13;;;;;;;10.10;5.53;;;;;;;6.07;79.86;93657.69;5009046;28;20201;-75
2021/12/11 07:48:40;;;;;;;10.38;5.65;;;;;;;6.12;81.10;93649.47;5009325;28;20374;-76
2021/12/11 07:51:09;;;;;;;10.48;6.28;;;;;;;5.97;80.87;93653.47;5007812;28;20208;-78
2021/12/11 07:53:36;;;;;;;7.93;5.00;;;;;;;5.78;80.74;93655.69;5011189;28;20291;-79
2021/12/11 07:56:05;;;;;;;10.10;5.30;;;;;;;5.53;81.60;93657.34;5011623;28;20230;-78
2021/12/11 07:58:34;;;;;;;9.13;5.60;;;;;;;5.46;82.23;93661.66;5010135;28;20648;-78
2021/12/11 08:01:03;;;;;;;7.68;4.25;;;;;;;5.28;82.00;93661.66;5012682;28;20283;-81
2021/12/11 08:03:32;;;;;;;10.38;5.45;;;;;;;5.39;82.56;93656.75;5010261;28;20201;-83
2021/12/11 08:05:59;;;;;;;13.27;6.75;;;;;;;5.65;82.55;93652.13;5016625;28;20216;-84
2021/12/11 08:08:28;;;;;;;11.98;5.15;;;;;;;5.71;82.06;93650.84;5012813;28;20189;-78
2021/12/11 08:10:59;;;;;;;12.25;6.18;;;;;;;5.66;82.36;93656.38;5014083;28;20260;-82
2021/12/11 08:13:27;;;;;;;12.82;5.82;;;;;;;5.63;82.35;93657.00;5011397;28;20360;-81
2021/12/11 08:15:55;;;;;;;14.25;6.70;;;;;;;5.66;82.04;93660.97;5012192;28;20718;-79
2021/12/11 08:18:24;;;;;;;13.60;6.50;;;;;;;5.68;81.46;93648.78;5011433;28;20248;-77
2021/12/11 08:20:52;;;;;;;12.38;7.88;;;;;;;5.73;81.15;93650.53;5012363;28;20300;-79
2021/12/11 08:23:19;;;;;;;13.60;8.98;;;;;;;5.88;81.34;93651.88;5013164;28;20193;-77
2021/12/11 08:25:49;;;;;;;7.85;4.97;;;;;;;5.96;79.71;93649.19;5014089;28;20189;-78
2021/12/11 08:28:21;;;;;;;6.57;3.58;;;;;;;5.93;79.74;93646.34;5017254;28;20189;-78
2021/12/11 08:30:51;;;;;;;15.63;5.85;;;;;;;6.01;80.10;93651.69;5013628;28;20197;-78
2021/12/11 08:33:18;;;;;;;10.55;5.55;;;;;;;6.01;79.24;93661.69;5015941;28;20239;-80
2021/12/11 08:35:46;;;;;;;13.27;8.32;;;;;;;6.05;78.70;93657.22;5027272;28;20196;-77
2021/12/11 08:38:14;;;;;;;9.85;6.28;;;;;;;6.34;79.22;93648.38;5019869;28;20215;-78
2021/12/11 08:40:45;;;;;;;11.90;5.85;;;;;;;6.65;78.34;93643.47;5016650;28;20233;-78
2021/12/11 08:43:16;;;;;;;12.82;5.88;;;;;;;6.71;76.88;93642.13;5024923;28;20197;-75
2021/12/11 08:45:49;;;;;;;11.93;5.00;;;;;;;6.78;75.18;93637.03;5016409;28;20205;-75
2021/12/11 08:48:20;;;;;;;6.40;3.45;;;;;;;6.76;75.12;93633.09;5019286;28;20282;-75
2021/12/11 08:50:50;;;;;;;6.80;3.97;;;;;;;6.91;74.45;93635.19;5016503;28;20189;-74
2021/12/11 08:53:19;;;;;;;10.70;5.53;;;;;;;6.95;75.41;93628.03;5017894;28;20279;-75
2021/12/11 08:55:49;;;;;;;9.00;4.53;;;;;;;7.14;74.75;93628.34;5017643;28;20282;-76
2021/12/11 08:58:20;;;;;;;9.35;6.10;;;;;;;7.15;73.56;93626.44;5032978;28;20258;-74
2021/12/11 09:00:51;;;;;;;5.25;3.22;;;;;;;7.11;72.83;93618.22;5032940;28;20205;-75
2021/12/11 09:03:23;;;;;;;7.32;5.07;;;;;;;7.22;72.58;93612.44;5032697;28;20254;-76
2021/12/11 09:05:56;;;;;;;5.47;2.80;;;;;;;7.27;72.23;93614.91;5033448;28;20220;-75
2021/12/11 09:08:29;;;;;;;5.45;2.80;;;;;;;7.26;72.17;93627.59;5032726;28;20279;-75
2021/12/11 09:11:00;;;;;;;7.28;4.55;;;;;;;7.25;71.48;93611.75;5027986;28;20194;-76
2021/12/11 09:13:31;;;;;;;6.47;4.45;;;;;;;7.35;71.87;93603.28;5013344;28;20275;-74
2021/12/11 09:16:02;;;;;;;7.88;3.95;;;;;;;7.44;72.00;93582.44;5000813;28;20604;-75
2021/12/11 09:18:33;;;;;;;10.65;3.88;;;;;;;7.69;72.13;93588.66;5013980;28;20593;-75
2021/12/11 09:21:05;;;;;;;7.53;3.55;;;;;;;7.48;71.55;93592.22;5014856;28;20796;-73
2021/12/11 09:23:42;;;;;;;16.98;7.93;;;;;;;7.45;72.06;93589.41;5014317;28;20189;-75
2021/12/11 09:26:14;;;;;;;19.65;11.57;;;;;;;7.42;73.66;93587.34;5010981;28;20702;-75
2021/12/11 09:28:49;;;;;;;15.75;8.57;;;;;;;7.54;71.86;93582.00;5011620;28;20213;-75
2021/12/11 09:31:20;;;;;;;20.35;10.65;;;;;;;7.70;72.29;93569.44;5013574;28;20598;-74
2021/12/11 09:33:53;;;;;;;16.85;10.20;;;;;;;7.69;71.73;93567.88;5012584;28;20244;-76
2021/12/11 09:36:30;;;;;;;15.95;9.25;;;;;;;7.77;72.01;93567.00;5014705;28;20189;-76
2021/12/11 09:39:05;;;;;;;19.88;10.75;;;;;;;7.92;71.60;93565.56;5015858;28;20649;-73
2021/12/11 09:41:33;;;;;;;11.35;7.45;;;;;;;8.00;70.97;93566.56;5011476;28;20671;-73
2021/12/11 09:44:04;;;;;;;10.35;7.03;;;;;;;8.06;70.27;93565.22;5024453;28;20291;-71
2021/12/11 09:46:36;;;;;;;11.90;6.78;;;;;;;8.12;70.67;93563.84;5030607;28;20212;-74
2021/12/11 09:49:06;;;;;;;14.55;7.75;;;;;;;8.36;69.93;93563.84;5011894;28;20200;-74
2021/12/11 09:51:39;;;;;;;13.32;7.75;;;;;;;8.39;69.46;93551.59;5008451;28;20194;-75
2021/12/11 09:54:12;;;;;;;11.18;7.10;;;;;;;8.51;69.47;93551.59;5010739;28;20216;-73
2021/12/11 09:56:45;;;;;;;11.85;8.15;;;;;;;8.23;69.12;93548.78;5010927;28;20967;-74
2021/12/11 09:59:16;;;;;;;11.35;6.10;;;;;;;8.25;69.19;93530.34;5010704;28;20247;-73
2021/12/11 10:01:46;;;;;;;9.52;6.68;;;;;;;8.23;69.87;93532.59;5015985;28;20243;-73
2021/12/11 10:04:17;;;;;;;9.35;5.30;;;;;;;8.14;69.17;93538.13;5008706;28;20655;-74
2021/12/11 10:07:12;;;;;;;16.15;7.47;;;;;;;8.20;70.17;93522.47;5019217;28;20266;-73
2021/12/11 10:09:42;;;;;;;11.07;7.15;;;;;;;8.40;69.45;93526.19;5003040;28;20211;-73
2021/12/11 10:12:13;;;;;;;8.90;5.53;;;;;;;8.52;69.10;93524.25;5008488;28;20244;-73
2021/12/11 10:14:46;;;;;;;11.32;5.30;;;;;;;8.52;68.44;93518.84;5012864;28;20232;-73
2021/12/11 10:17:20;;;;;;;10.70;5.57;;;;;;;8.69;68.29;93533.22;5014263;28;20200;-74
2021/12/11 10:19:49;;;;;;;8.40;4.82;;;;;;;8.66;68.29;93533.88;5010910;28;20667;-75
2021/12/11 10:22:24;;;;;;;8.52;4.95;;;;;;;8.86;67.66;93530.25;5011265;28;20571;-73
2021/12/11 10:24:53;;;;;;;9.27;5.25;;;;;;;8.89;68.17;93537.63;5025446;28;20199;-74
2021/12/11 10:27:24;;;;;;;7.30;4.25;;;;;;;8.93;67.96;93525.03;5013715;28;20196;-74
2021/12/11 10:29:54;;;;;;;9.32;5.18;;;;;;;8.83;68.36;93517.41;5011332;28;20193;-72
2021/12/11 10:32:25;;;;;;;5.85;4.43;;;;;;;8.82;67.86;93522.03;5019712;28;20201;-72
2021/12/11 10:34:55;;;;;;;11.48;4.47;;;;;;;8.85;67.83;93520.56;5018112;28;20227;-72
2021/12/11 10:37:27;;;;;;;9.27;4.47;;;;;;;8.68;68.27;93520.84;5031284;28;20278;-72
2021/12/11 10:39:58;;;;;;;6.60;4.07;;;;;;;8.78;68.48;93523.84;5013018;28;20323;-72
2021/12/11 10:42:26;;;;;;;6.20;3.33;;;;;;;8.71;68.26;93515.56;5022696;28;20255;-71
2021/12/11 10:44:58;;;;;;;5.10;3.13;;;;;;;8.76;67.84;93509.88;5030900;28;20651;-71
2021/12/11 10:47:29;;;;;;;6.45;3.55;;;;;;;8.71;68.39;93503.97;5015220;28;20291;-72
2021/12/11 10:49:57;;;;;;;7.50;4.18;;;;;;;8.71;68.83;93498.56;5008776;28;20208;-72
2021/12/11 10:52:27;;;;;;;6.65;4.10;;;;;;;8.71;68.24;93493.16;5022172;28;20204;-72
2021/12/11 10:54:57;;;;;;;6.07;4.05;;;;;;;8.58;68.25;93484.31;5017665;28;20278;-71
2021/12/11 10:57:25;;;;;;;8.55;4.32;;;;;;;8.84;68.71;93492.00;5018816;28;20200;-72
2021/12/11 10:59:57;;;;;;;7.07;4.50;;;;;;;8.74;68.50;93485.19;5012026;28;20205;-72
2021/12/11 11:02:27;;;;;;;7.25;4.07;;;;;;;8.57;68.61;93490.06;5008705;28;20304;-71
2021/12/11 11:05:01;;;;;;;6.45;4.30;;;;;;;8.75;68.35;93492.13;5007702;28;20723;-71
2021/12/11 11:07:30;;;;;;;8.18;5.00;;;;;;;8.73;68.38;93488.22;5011607;28;20192;-72
2021/12/11 11:09:59;;;;;;;6.53;4.03;;;;;;;8.70;68.06;93475.41;5008262;28;20205;-73
2021/12/11 11:12:28;;;;;;;5.60;4.15;;;;;;;9.50;73.65;93470.56;5010369;28;20271;-77
2021/12/11 11:14:58;;;;;;;8.40;4.45;;;;;;;8.87;67.77;93480.50;5005164;28;20295;-74
2021/12/11 11:17:33;;;;;;;7.47;4.53;;;;;;;9.07;67.25;93479.50;5008614;28;20201;-73
2021/12/11 11:20:01;;;;;;;20.77;5.50;;;;;;;8.99;67.29;93466.94;5008864;28;20195;-74
2021/12/11 11:22:34;;;;;;;7.75;3.95;;;;;;;9.00;68.67;93476.63;5007748;28;20271;-73
2021/12/11 11:25:05;;;;;;;6.47;3.60;;;;;;;9.11;69.06;93464.16;5008873;28;20247;-73
2021/12/11 11:27:33;;;;;;;7.32;3.45;;;;;;;9.25;66.36;93459.13;5007278;28;20656;-73
2021/12/11 11:30:01;;;;;;;5.07;3.35;;;;;;;8.94;67.18;93453.69;5010377;28;20242;-75
2021/12/11 11:32:32;;;;;;;7.93;3.80;;;;;;;8.89;67.88;93449.31;5010028;28;20201;-73
2021/12/11 11:35:02;;;;;;;7.63;4.00;;;;;;;8.98;67.85;93445.69;5012153;28;20214;-77
2021/12/11 11:37:32;;;;;;;8.23;4.47;;;;;;;8.88;67.71;93444.28;5011253;28;20244;-71
2021/12/11 11:40:03;;;;;;;6.05;3.92;;;;;;;8.74;68.79;93435.78;5009347;28;20237;-72
2021/12/11 11:42:32;;;;;;;12.25;4.38;;;;;;;8.60;69.12;93433.50;5009840;28;20922;-74
2021/12/11 11:45:02;;;;;;;4.43;3.20;;;;;;;8.42;69.54;93419.50;5011184;28;20205;-71
2021/12/11 11:47:30;;;;;;;5.43;4.05;;;;;;;8.51;69.55;93428.22;5016548;28;20570;-73
2021/12/11 11:49:59;;;;;;;7.45;3.45;;;;;;;8.53;69.03;93428.69;5009085;28;20193;-72
2021/12/11 11:52:28;;;;;;;7.47;3.58;;;;;;;8.52;69.68;93435.19;5008456;28;20201;-72
2021/12/11 11:55:00;;;;;;;6.68;3.13;;;;;;;8.49;69.49;93441.28;5027889;28;20239;-74